Time;durP1;ratioP1;P1;durP2;ratioP2;P2;SDS_P1;SDS_P2;PMS_P1;PMS_P2;Temp;Humidity;BMP_temperature;BMP_pressure;BME280_temperature;BME280_humidity;BME280_pressure;Samples;Min_cycle;Max_cycle;Signal;HPM_P1;HPM_P2
2024/04/12 00:00:57;;;;;;;8.13;5.00;;;14.70;91.50;;;;;;5430758;26;20403;-82
2024/04/12 00:03:23;;;;;;;9.13;5.57;;;14.60;91.60;;;;;;5428358;26;20010;-81
2024/04/12 00:05:49;;;;;;;9.25;5.93;;;14.70;91.50;;;;;;5431630;26;20029;-82
2024/04/12 00:08:16;;;;;;;8.23;5.82;;;14.60;91.50;;;;;;5419960;26;20006;-82
2024/04/12 00:10:42;;;;;;;10.30;6.30;;;14.60;91.60;;;;;;5416705;26;20071;-81
2024/04/12 00:13:07;;;;;;;10.38;6.78;;;14.60;91.70;;;;;;5427270;26;19994;-81
2024/04/12 00:15:33;;;;;;;11.00;6.60;;;14.60;91.60;;;;;;5432786;26;19999;-82
2024/04/12 00:18:01;;;;;;;10.35;7.63;;;14.60;91.70;;;;;;5430951;26;19995;-81
2024/04/12 00:20:29;;;;;;;11.43;7.20;;;14.60;91.80;;;;;;5435390;26;20013;-82
2024/04/12 00:22:55;;;;;;;10.90;7.32;;;14.60;91.90;;;;;;5427788;26;20017;-82
2024/04/12 00:25:23;;;;;;;11.85;8.00;;;14.60;92.00;;;;;;5427904;26;19999;-81
2024/04/12 00:27:49;;;;;;;10.95;8.18;;;14.60;92.10;;;;;;5415420;26;20258;-82
2024/04/12 00:30:37;;;;;;;13.00;8.43;;;14.60;92.20;;;;;;5424457;26;19995;-82
2024/04/12 00:33:09;;;;;;;11.52;8.57;;;14.60;92.20;;;;;;5412823;26;20010;-81
2024/04/12 00:35:39;;;;;;;12.25;8.80;;;14.60;92.40;;;;;;5432186;26;20008;-83
2024/04/12 00:38:09;;;;;;;11.57;8.65;;;14.60;92.40;;;;;;5404471;26;20013;-82
2024/04/12 00:40:40;;;;;;;11.32;8.00;;;14.60;92.40;;;;;;5428829;26;20010;-82
2024/04/12 00:43:13;;;;;;;13.15;9.07;;;14.60;92.50;;;;;;5446584;26;20025;-83
2024/04/12 00:45:48;;;;;;;12.82;9.30;;;14.60;92.60;;;;;;5431474;26;20159;-82
2024/04/12 00:48:15;;;;;;;15.52;9.75;;;14.60;92.70;;;;;;5434913;26;20309;-83
2024/04/12 00:50:43;;;;;;;14.93;9.85;;;14.50;92.70;;;;;;5438706;26;20007;-81
2024/04/12 00:53:11;;;;;;;13.75;9.98;;;14.50;92.80;;;;;;5436396;26;20015;-83
2024/04/12 00:55:39;;;;;;;13.13;9.75;;;14.40;92.90;;;;;;5421522;26;22000;-82
2024/04/12 00:58:13;;;;;;;15.13;10.82;;;14.40;93.00;;;;;;5429323;26;20270;-81
2024/04/12 01:00:46;;;;;;;14.50;11.25;;;14.30;93.10;;;;;;5414617;26;21170;-82
2024/04/12 01:03:15;;;;;;;14.73;10.77;;;14.20;93.20;;;;;;5432989;26;20037;-81
2024/04/12 01:05:41;;;;;;;18.92;11.45;;;14.20;93.40;;;;;;5416764;26;20013;-81
2024/04/12 01:08:07;;;;;;;15.95;11.07;;;14.10;93.60;;;;;;5438207;26;20881;-81
2024/04/12 01:10:36;;;;;;;18.30;11.93;;;14.10;93.70;;;;;;5405053;26;20006;-81
2024/04/12 01:13:03;;;;;;;16.55;11.98;;;14.10;93.70;;;;;;5432511;26;19995;-82
2024/04/12 01:15:40;;;;;;;18.52;12.15;;;14.10;93.80;;;;;;5431112;26;20036;-80
2024/04/12 01:18:11;;;;;;;17.85;12.48;;;14.10;93.90;;;;;;5427066;26;20003;-80
2024/04/12 01:20:39;;;;;;;16.70;12.65;;;14.10;94.10;;;;;;5414212;26;20007;-82
2024/04/12 01:23:05;;;;;;;19.30;13.48;;;14.00;94.20;;;;;;5428747;26;20006;-81
2024/04/12 01:25:33;;;;;;;18.17;12.95;;;14.00;94.30;;;;;;5431426;26;20017;-81
2024/04/12 01:27:59;;;;;;;19.88;13.68;;;13.90;94.50;;;;;;5431745;26;20010;-80
2024/04/12 01:30:25;;;;;;;20.67;14.32;;;13.90;94.60;;;;;;5423968;26;20070;-81
2024/04/12 01:32:50;;;;;;;17.55;13.65;;;13.90;94.60;;;;;;5426462;26;20026;-81
2024/04/12 01:35:17;;;;;;;19.10;14.45;;;13.90;94.80;;;;;;5426252;26;20009;-81
2024/04/12 01:37:44;;;;;;;20.92;14.65;;;13.80;94.80;;;;;;5403090;26;19995;-82
2024/04/12 01:40:12;;;;;;;22.55;15.00;;;13.90;94.90;;;;;;5432811;26;19999;-82
2024/04/12 01:42:42;;;;;;;24.63;15.82;;;13.80;94.90;;;;;;5402339;26;20023;-81
2024/04/12 01:45:15;;;;;;;25.50;15.35;;;13.80;95.00;;;;;;5404106;26;20013;-81
2024/04/12 01:47:42;;;;;;;27.10;17.13;;;13.80;95.10;;;;;;5429730;26;20010;-83
2024/04/12 01:50:12;;;;;;;19.45;14.95;;;13.70;95.10;;;;;;5404282;26;20046;-83
2024/04/12 01:52:53;;;;;;;23.10;15.60;;;13.70;95.10;;;;;;5428864;26;20031;-83
2024/04/12 01:55:20;;;;;;;21.88;15.77;;;13.70;95.20;;;;;;5429453;26;20003;-83
2024/04/12 01:57:53;;;;;;;20.17;14.40;;;13.70;95.20;;;;;;5425068;26;20437;-84
2024/04/12 02:00:20;;;;;;;22.90;15.98;;;13.70;95.20;;;;;;5406966;26;20558;-82
2024/04/12 02:02:51;;;;;;;24.00;15.80;;;13.70;95.30;;;;;;5426883;26;20010;-83
2024/04/12 02:05:19;;;;;;;23.30;16.20;;;13.60;95.30;;;;;;5426578;26;20003;-83
2024/04/12 02:07:46;;;;;;;20.55;14.45;;;13.60;95.40;;;;;;5428836;26;20021;-82
2024/04/12 02:10:11;;;;;;;21.08;15.13;;;13.60;95.30;;;;;;5430251;26;20003;-82
2024/04/12 02:12:40;;;;;;;19.65;14.20;;;13.60;95.40;;;;;;5428402;26;20021;-82
2024/04/12 02:15:25;;;;;;;21.67;15.25;;;13.60;95.40;;;;;;5428417;26;20085;-83
2024/04/12 02:17:57;;;;;;;24.10;15.77;;;13.60;95.40;;;;;;5421010;26;21057;-82
2024/04/12 02:20:33;;;;;;;21.80;15.70;;;13.60;95.50;;;;;;5431303;26;20447;-83
2024/04/12 02:23:06;;;;;;;26.75;15.68;;;13.60;95.50;;;;;;5426995;26;20011;-82
2024/04/12 02:25:36;;;;;;;25.48;16.17;;;13.60;95.50;;;;;;5402701;26;20093;-82
2024/04/12 02:28:08;;;;;;;23.92;16.17;;;13.60;95.50;;;;;;5411278;26;20130;-82
2024/04/12 02:30:45;;;;;;;24.10;16.15;;;13.60;95.50;;;;;;5425094;26;20010;-82
2024/04/12 02:33:16;;;;;;;22.15;16.20;;;13.60;95.50;;;;;;5422658;26;20047;-82
2024/04/12 02:35:43;;;;;;;27.33;18.10;;;13.50;95.60;;;;;;5431551;26;20010;-82
2024/04/12 02:38:15;;;;;;;27.63;17.90;;;13.50;95.70;;;;;;5420827;26;20003;-82
2024/04/12 02:40:44;;;;;;;23.90;16.38;;;13.50;95.70;;;;;;5421229;26;20062;-83
2024/04/12 02:43:15;;;;;;;29.65;17.13;;;13.50;95.70;;;;;;5424508;26;20017;-82
2024/04/12 02:45:50;;;;;;;28.27;18.33;;;13.40;95.70;;;;;;5425089;26;19996;-82
2024/04/12 02:48:17;;;;;;;31.05;19.95;;;13.40;95.80;;;;;;5430257;26;20110;-82
2024/04/12 02:50:43;;;;;;;29.85;18.15;;;13.50;95.90;;;;;;5430009;26;19995;-80
2024/04/12 02:53:17;;;;;;;32.40;19.15;;;13.50;95.90;;;;;;5429885;26;19999;-80
2024/04/12 02:55:43;;;;;;;33.88;21.35;;;13.40;96.00;;;;;;5418730;26;20002;-82
2024/04/12 02:58:09;;;;;;;30.77;20.73;;;13.40;96.00;;;;;;5425364;26;20010;-82
2024/04/12 03:00:37;;;;;;;30.60;20.48;;;13.50;96.00;;;;;;5423289;26;20006;-82
2024/04/12 03:03:06;;;;;;;33.60;21.05;;;13.40;96.00;;;;;;5431872;26;20013;-82
2024/04/12 03:05:32;;;;;;;32.08;19.63;;;13.40;96.00;;;;;;5433809;26;20010;-82
2024/04/12 03:08:00;;;;;;;34.53;20.20;;;13.40;96.00;;;;;;5412562;26;19999;-82
2024/04/12 03:10:32;;;;;;;33.47;20.42;;;13.40;96.10;;;;;;5410347;26;20026;-82
2024/04/12 03:13:00;;;;;;;38.38;21.63;;;13.30;96.10;;;;;;5418003;26;20002;-82
2024/04/12 03:15:27;;;;;;;34.40;20.98;;;13.30;96.10;;;;;;5435932;26;20087;-82
2024/04/12 03:17:52;;;;;;;31.83;21.42;;;13.30;96.10;;;;;;5398880;26;20042;-82
2024/04/12 03:20:20;;;;;;;35.40;20.48;;;13.30;96.10;;;;;;5421974;26;19999;-82
2024/04/12 03:22:46;;;;;;;31.10;18.92;;;13.30;96.10;;;;;;5435027;26;19999;-82
2024/04/12 03:25:12;;;;;;;33.25;20.77;;;13.30;96.20;;;;;;5430194;26;20006;-82
2024/04/12 03:27:39;;;;;;;33.38;21.13;;;13.20;96.20;;;;;;5431702;26;20002;-82
2024/04/12 03:30:14;;;;;;;34.10;21.52;;;13.20;96.30;;;;;;5444058;26;20279;-81
2024/04/12 03:32:44;;;;;;;34.10;21.45;;;13.20;96.30;;;;;;5425621;26;20015;-82
2024/04/12 03:35:11;;;;;;;35.55;22.23;;;13.10;96.30;;;;;;5425478;26;20005;-82
2024/04/12 03:37:37;;;;;;;33.33;21.27;;;13.20;96.40;;;;;;5432615;26;20809;-81
2024/04/12 03:40:18;;;;;;;34.80;20.90;;;13.20;96.40;;;;;;5427238;26;20136;-80
2024/04/12 03:42:44;;;;;;;37.78;22.23;;;13.10;96.40;;;;;;5418772;26;20114;-81
2024/04/12 03:45:14;;;;;;;37.90;22.45;;;13.10;96.40;;;;;;5429801;26;20010;-81
2024/04/12 03:47:50;;;;;;;34.90;21.95;;;13.10;96.40;;;;;;5418877;26;20068;-81
2024/04/12 03:50:16;;;;;;;39.03;22.30;;;13.10;96.50;;;;;;5429698;26;20749;-81
2024/04/12 03:52:43;;;;;;;39.45;24.13;;;13.10;96.50;;;;;;5430596;26;19999;-81
2024/04/12 03:55:10;;;;;;;38.15;22.63;;;13.10;96.60;;;;;;5434914;26;20010;-80
2024/04/12 03:57:40;;;;;;;38.28;23.80;;;13.20;96.60;;;;;;5426868;26;20808;-80
2024/04/12 04:00:11;;;;;;;43.00;24.38;;;13.30;96.60;;;;;;5432501;26;20066;-80
2024/04/12 04:02:40;;;;;;;40.53;24.35;;;13.30;96.60;;;;;;5391874;26;20062;-81
2024/04/12 04:05:16;;;;;;;36.22;21.75;;;13.40;96.60;;;;;;5434113;26;20573;-81
2024/04/12 04:07:44;;;;;;;38.95;23.40;;;13.40;96.60;;;;;;5430886;26;20010;-81
2024/04/12 04:10:14;;;;;;;41.92;23.75;;;13.40;96.50;;;;;;5399942;26;20422;-81
2024/04/12 04:12:45;;;;;;;39.92;23.80;;;13.40;96.50;;;;;;5427138;26;20084;-81
2024/04/12 04:15:11;;;;;;;41.13;24.08;;;13.40;96.40;;;;;;5432219;26;20369;-81
2024/04/12 04:17:37;;;;;;;33.63;21.50;;;13.40;96.50;;;;;;5406358;26;20009;-82
2024/04/12 04:20:06;;;;;;;37.83;24.15;;;13.40;96.40;;;;;;5428274;26;20002;-81
2024/04/12 04:25:01;;;;;;;37.95;23.42;;;13.30;96.40;;;;;;5430601;26;20003;-81
2024/04/12 04:27:27;;;;;;;36.40;22.35;;;13.20;96.40;;;;;;5428230;26;19998;-82
2024/04/12 04:29:56;;;;;;;36.88;22.75;;;13.20;96.40;;;;;;5416036;26;20414;-81
2024/04/12 04:32:26;;;;;;;33.33;21.02;;;13.20;96.40;;;;;;5430925;26;20068;-81
2024/04/12 04:34:54;;;;;;;37.47;23.02;;;13.20;96.40;;;;;;5410251;26;20002;-81
2024/04/12 04:37:27;;;;;;;35.70;22.13;;;13.20;96.50;;;;;;5432461;26;20015;-82
2024/04/12 04:39:53;;;;;;;36.25;22.50;;;13.20;96.50;;;;;;5426112;26;20713;-81
2024/04/12 04:42:18;;;;;;;33.15;22.92;;;13.10;96.60;;;;;;5394232;26;20040;-81
2024/04/12 04:44:45;;;;;;;34.63;22.55;;;13.10;96.50;;;;;;5431694;26;20136;-83
2024/04/12 04:47:10;;;;;;;36.83;22.85;;;13.10;96.60;;;;;;5411997;26;20133;-80
2024/04/12 04:49:38;;;;;;;37.72;22.85;;;13.10;96.60;;;;;;5424893;26;20043;-81
2024/04/12 04:52:07;;;;;;;41.47;23.70;;;13.10;96.60;;;;;;5430000;26;20444;-82
2024/04/12 04:54:36;;;;;;;35.78;21.70;;;13.10;96.60;;;;;;5435005;26;20014;-82
2024/04/12 04:57:01;;;;;;;35.15;23.30;;;13.10;96.60;;;;;;5420841;26;20006;-81
2024/04/12 04:59:32;;;;;;;32.50;21.85;;;13.10;96.70;;;;;;5422865;26;19998;-81
2024/04/12 05:02:00;;;;;;;34.03;22.00;;;13.10;96.60;;;;;;5401981;26;19999;-82
2024/04/12 05:04:31;;;;;;;34.63;21.75;;;13.10;96.60;;;;;;5431026;26;19998;-81
2024/04/12 05:06:58;;;;;;;33.78;22.15;;;13.10;96.60;;;;;;5430000;26;20021;-81
2024/04/12 05:09:27;;;;;;;33.85;22.42;;;13.10;96.60;;;;;;5430843;26;20011;-81
2024/04/12 05:11:54;;;;;;;35.38;22.52;;;13.10;96.60;;;;;;5429546;26;20054;-81
2024/04/12 05:17:07;;;;;;;29.75;20.92;;;13.10;96.60;;;;;;5421815;26;20010;-82
2024/04/12 05:19:39;;;;;;;35.15;22.80;;;13.10;96.50;;;;;;5424858;26;20001;-82
2024/04/12 05:22:11;;;;;;;31.83;21.48;;;13.10;96.50;;;;;;5407752;26;20729;-82
2024/04/12 05:24:39;;;;;;;32.13;21.45;;;13.20;96.40;;;;;;5431368;26;20390;-82
2024/04/12 05:27:06;;;;;;;29.70;21.05;;;13.20;96.30;;;;;;5414010;26;20075;-82
2024/04/12 05:29:33;;;;;;;34.63;21.70;;;13.20;96.20;;;;;;5433574;26;20003;-82
2024/04/12 05:31:59;;;;;;;29.27;20.58;;;13.30;96.10;;;;;;5431331;26;20013;-82
2024/04/12 05:34:28;;;;;;;35.05;21.85;;;13.20;96.00;;;;;;5447847;26;20027;-82
2024/04/12 05:36:55;;;;;;;32.30;21.98;;;13.30;96.00;;;;;;5420408;26;20162;-82
2024/04/12 05:39:22;;;;;;;28.80;20.77;;;13.30;96.00;;;;;;5409306;26;20002;-82
2024/04/12 05:41:53;;;;;;;33.92;22.90;;;13.40;96.00;;;;;;5433140;26;20857;-82
2024/04/12 05:44:19;;;;;;;33.10;22.10;;;13.40;95.90;;;;;;5424832;26;20022;-83
2024/04/12 05:46:46;;;;;;;30.98;21.88;;;13.50;95.90;;;;;;5407026;26;20103;-82
2024/04/12 05:49:14;;;;;;;32.38;22.13;;;13.50;95.90;;;;;;5425017;26;20497;-82
2024/04/12 05:51:39;;;;;;;27.77;20.63;;;13.60;95.80;;;;;;5399738;26;20065;-82
2024/04/12 05:54:17;;;;;;;28.63;20.15;;;13.60;95.70;;;;;;5431453;26;20002;-81
2024/04/12 05:56:47;;;;;;;28.33;20.23;;;13.70;95.50;;;;;;5416306;26;20711;-82
2024/04/12 05:59:16;;;;;;;30.90;21.95;;;13.80;95.30;;;;;;5418165;26;20032;-82
2024/04/12 06:01:46;;;;;;;27.85;20.27;;;13.80;95.10;;;;;;5423704;26;20013;-82
2024/04/12 06:04:19;;;;;;;27.73;20.33;;;14.00;95.10;;;;;;5419459;26;20004;-82
2024/04/12 06:06:49;;;;;;;28.08;18.70;;;14.00;94.90;;;;;;5396242;26;19999;-81
2024/04/12 06:09:21;;;;;;;30.92;20.90;;;14.10;94.90;;;;;;5410395;26;20237;-81
2024/04/12 06:11:52;;;;;;;27.65;19.50;;;14.20;94.60;;;;;;5426012;26;20613;-82
2024/04/12 06:14:21;;;;;;;25.42;18.95;;;14.20;94.50;;;;;;5422278;26;20002;-82
2024/04/12 06:16:48;;;;;;;24.25;18.58;;;14.40;94.50;;;;;;5424546;26;20012;-82
2024/04/12 06:19:14;;;;;;;26.35;18.95;;;14.40;94.20;;;;;;5416352;26;20209;-82
2024/04/12 06:21:45;;;;;;;29.60;18.73;;;14.50;94.10;;;;;;5382211;26;20002;-83
2024/04/12 06:24:13;;;;;;;27.42;19.42;;;14.50;93.90;;;;;;5387972;26;20717;-82
2024/04/12 06:26:39;;;;;;;25.58;18.20;;;14.60;93.70;;;;;;5424574;26;20617;-82
2024/04/12 06:29:09;;;;;;;26.30;17.63;;;14.60;93.60;;;;;;5424702;26;19999;-82
2024/04/12 06:31:34;;;;;;;24.10;18.50;;;14.60;93.50;;;;;;5423425;26;19998;-83
2024/04/12 06:34:04;;;;;;;23.38;18.05;;;14.70;93.40;;;;;;5389983;26;20010;-82
2024/04/12 06:36:34;;;;;;;25.02;18.20;;;14.70;93.40;;;;;;5400123;26;20003;-83
2024/04/12 06:39:04;;;;;;;25.20;18.33;;;14.70;93.30;;;;;;5437308;26;20014;-81
2024/04/12 06:41:31;;;;;;;23.38;18.10;;;14.80;93.40;;;;;;5430887;26;20047;-81
2024/04/12 06:43:57;;;;;;;26.95;19.00;;;14.90;93.20;;;;;;5429305;26;20304;-80
2024/04/12 06:46:27;;;;;;;24.25;17.98;;;15.00;93.00;;;;;;5388221;26;20435;-80
2024/04/12 06:49:07;;;;;;;24.25;18.40;;;15.00;92.80;;;;;;5407410;26;20400;-80
2024/04/12 06:52:08;;;;;;;23.05;18.25;;;15.00;92.60;;;;;;5443603;26;20084;-81
2024/04/12 06:54:25;;;;;;;25.35;17.80;;;15.10;92.50;;;;;;5424493;26;20118;-81
2024/04/12 06:56:51;;;;;;;24.33;18.52;;;15.10;92.50;;;;;;5428713;26;20487;-83
2024/04/12 06:59:18;;;;;;;24.70;18.00;;;15.20;92.20;;;;;;5432105;26;20080;-83
2024/04/12 07:01:44;;;;;;;26.92;19.08;;;15.10;92.00;;;;;;5433310;26;20002;-83
2024/04/12 07:04:11;;;;;;;22.77;17.67;;;15.20;92.20;;;;;;5427199;26;19999;-80
2024/04/12 07:06:37;;;;;;;24.38;18.85;;;15.30;92.30;;;;;;5405580;26;19994;-79
2024/04/12 07:09:08;;;;;;;23.30;18.13;;;15.40;92.40;;;;;;5430969;26;21187;-79
2024/04/12 07:11:39;;;;;;;22.55;17.17;;;15.60;92.10;;;;;;5441740;26;20007;-79
2024/04/12 07:14:08;;;;;;;24.90;17.92;;;15.80;92.10;;;;;;5401477;26;20018;-79
2024/04/12 07:16:35;;;;;;;23.88;17.60;;;16.10;91.50;;;;;;5403690;26;19999;-79
2024/04/12 07:19:08;;;;;;;25.38;17.15;;;16.10;90.80;;;;;;5433767;26;20792;-81
2024/04/12 07:21:35;;;;;;;27.88;18.00;;;16.20;90.00;;;;;;5443410;26;20347;-79
2024/04/12 07:24:03;;;;;;;25.02;16.95;;;16.40;89.50;;;;;;5401084;26;19999;-79
2024/04/12 07:26:29;;;;;;;23.33;16.13;;;16.50;89.00;;;;;;5400221;26;19998;-80
2024/04/12 07:29:01;;;;;;;23.48;16.27;;;16.70;88.90;;;;;;5433045;26;20066;-79
2024/04/12 07:31:34;;;;;;;21.45;16.00;;;16.80;88.10;;;;;;5416434;26;19995;-79
2024/04/12 07:34:05;;;;;;;19.95;14.73;;;16.90;88.00;;;;;;5426380;26;20547;-79
2024/04/12 07:36:32;;;;;;;24.80;16.23;;;17.10;87.20;;;;;;5428591;26;20020;-79
2024/04/12 07:39:07;;;;;;;23.38;15.65;;;17.20;87.00;;;;;;5407045;26;20007;-80
2024/04/12 07:41:43;;;;;;;23.13;14.90;;;17.20;86.10;;;;;;5410337;26;20340;-79
2024/04/12 07:44:12;;;;;;;21.48;14.90;;;17.30;85.90;;;;;;5426135;26;20002;-79
2024/04/12 07:46:51;;;;;;;24.20;15.15;;;17.60;86.00;;;;;;5429951;26;20573;-80
2024/04/12 07:49:18;;;;;;;22.40;14.02;;;17.80;85.40;;;;;;5429653;26;20466;-80
2024/04/12 07:51:49;;;;;;;21.90;15.00;;;18.00;84.30;;;;;;5432359;26;20002;-80
2024/04/12 07:54:15;;;;;;;25.27;15.75;;;18.00;83.90;;;;;;5433303;26;19999;-78
2024/04/12 07:57:02;;;;;;;22.58;14.27;;;18.00;84.20;;;;;;5420856;26;20071;-79
2024/04/12 07:59:28;;;;;;;22.25;16.08;;;18.10;83.80;;;;;;5418527;26;20045;-79
2024/04/12 08:01:57;;;;;;;19.58;13.57;;;18.20;83.90;;;;;;5427846;26;20003;-81
2024/04/12 08:04:23;;;;;;;18.33;13.38;;;18.30;83.60;;;;;;5410486;26;20014;-77
2024/04/12 08:06:56;;;;;;;20.13;13.45;;;18.30;83.50;;;;;;5435428;26;20339;-80
2024/04/12 08:09:46;;;;;;;20.42;13.18;;;18.30;83.50;;;;;;5428303;26;20045;-81
2024/04/12 08:12:17;;;;;;;19.10;13.02;;;18.40;83.30;;;;;;5425548;26;20054;-80
2024/04/12 08:14:53;;;;;;;19.00;12.18;;;18.60;82.60;;;;;;5426227;26;20761;-81
2024/04/12 08:17:26;;;;;;;16.90;12.93;;;18.70;82.50;;;;;;5421251;26;20015;-81
2024/04/12 08:20:12;;;;;;;17.27;12.52;;;18.90;81.30;;;;;;5425401;26;19999;-79
2024/04/12 08:22:38;;;;;;;17.50;11.80;;;19.10;81.10;;;;;;5427983;26;20018;-80
2024/04/12 08:25:06;;;;;;;18.10;12.55;;;19.10;80.70;;;;;;5429818;26;20062;-80
2024/04/12 08:27:34;;;;;;;19.65;12.20;;;19.20;80.30;;;;;;5428910;26;20010;-80
2024/04/12 08:30:13;;;;;;;17.80;11.82;;;19.20;80.00;;;;;;5427138;26;20139;-81
2024/04/12 08:32:39;;;;;;;19.42;11.63;;;19.10;80.00;;;;;;5440322;26;20003;-81
2024/04/12 08:35:08;;;;;;;17.15;11.40;;;19.00;81.10;;;;;;5430545;26;20943;-80
2024/04/12 08:37:37;;;;;;;20.02;11.98;;;19.10;81.00;;;;;;5430729;26;20386;-80
2024/04/12 08:40:10;;;;;;;15.30;11.23;;;19.20;80.70;;;;;;5427901;26;20014;-80
2024/04/12 08:42:37;;;;;;;16.38;11.15;;;19.40;80.00;;;;;;5439839;26;20044;-80
2024/04/12 08:45:14;;;;;;;19.98;11.68;;;19.50;79.30;;;;;;5430172;26;19994;-81
2024/04/12 08:48:04;;;;;;;17.02;11.00;;;19.60;79.20;;;;;;5427275;26;20434;-79
2024/04/12 08:50:32;;;;;;;18.50;11.25;;;19.70;78.60;;;;;;5424341;26;20064;-80
2024/04/12 08:53:04;;;;;;;16.27;11.07;;;19.60;78.70;;;;;;5432696;26;20016;-81
2024/04/12 08:55:30;;;;;;;19.35;10.85;;;19.80;78.60;;;;;;5433918;26;20010;-81
2024/04/12 08:58:00;;;;;;;20.63;12.68;;;19.50;78.40;;;;;;5422664;26;20372;-79
2024/04/12 09:00:31;;;;;;;17.40;11.50;;;19.40;79.20;;;;;;5432175;26;20006;-80
2024/04/12 09:02:59;;;;;;;17.23;11.63;;;19.50;79.30;;;;;;5430099;26;20007;-80
2024/04/12 09:05:26;;;;;;;19.52;11.80;;;19.60;79.40;;;;;;5414890;26;20344;-80
2024/04/12 09:07:58;;;;;;;19.33;11.43;;;19.70;78.70;;;;;;5430615;26;20006;-83
2024/04/12 09:10:25;;;;;;;18.58;11.32;;;19.50;78.60;;;;;;5433173;26;20096;-80
2024/04/12 09:12:52;;;;;;;17.85;11.20;;;19.60;78.60;;;;;;5422809;26;20025;-80
2024/04/12 09:15:24;;;;;;;17.30;11.07;;;19.70;77.30;;;;;;5430453;26;20419;-80
2024/04/12 09:18:00;;;;;;;19.35;10.77;;;19.90;77.70;;;;;;5443027;26;20049;-80
2024/04/12 09:20:30;;;;;;;17.73;10.95;;;20.10;77.20;;;;;;5420372;26;20003;-80
2024/04/12 09:22:57;;;;;;;18.67;12.18;;;20.20;77.10;;;;;;5427315;26;20321;-80
2024/04/12 09:25:28;;;;;;;17.88;11.02;;;20.40;76.50;;;;;;5427988;26;20066;-79
2024/04/12 09:27:57;;;;;;;17.10;10.93;;;20.50;76.20;;;;;;5425256;26;20039;-79
2024/04/12 09:33:20;;;;;;;17.20;11.18;;;20.90;75.70;;;;;;5429838;26;20044;-80
2024/04/12 09:35:52;;;;;;;16.25;10.75;;;21.10;74.40;;;;;;5407594;26;20432;-80
2024/04/12 09:38:21;;;;;;;16.45;10.48;;;21.10;74.50;;;;;;5410430;26;20014;-80
2024/04/12 09:41:02;;;;;;;17.13;10.40;;;21.10;75.10;;;;;;5424015;26;20010;-82
2024/04/12 09:43:31;;;;;;;17.67;9.82;;;21.00;73.80;;;;;;5401308;26;20395;-80
2024/04/12 09:46:09;;;;;;;17.30;8.85;;;20.70;74.30;;;;;;5432963;26;20002;-80
2024/04/12 10:38:48;;;;;;;;;;;22.50;71.30;;;;;;5430380;26;20021;-82
2024/04/12 10:41:15;;;;;;;15.02;8.32;;;22.80;70.00;;;;;;5421762;26;20005;-80
2024/04/12 10:43:43;;;;;;;14.35;7.63;;;22.80;70.70;;;;;;5430958;26;20014;-80
2024/04/12 10:46:12;;;;;;;15.27;7.30;;;22.80;69.60;;;;;;5429007;26;20018;-80
2024/04/12 10:48:39;;;;;;;13.43;7.25;;;22.70;68.20;;;;;;5428207;26;20014;-81
2024/04/12 10:51:08;;;;;;;13.73;6.30;;;22.50;69.00;;;;;;5413524;26;20927;-82
2024/04/12 10:53:38;;;;;;;11.68;6.30;;;22.40;68.50;;;;;;5432715;26;20080;-80
2024/04/12 10:56:18;;;;;;;17.20;6.43;;;22.20;69.40;;;;;;5419049;26;19999;-81
2024/04/12 10:58:51;;;;;;;14.50;6.95;;;22.50;68.50;;;;;;5431856;26;20002;-81
2024/04/12 11:01:18;;;;;;;13.20;6.37;;;22.60;68.70;;;;;;5403388;26;20337;-82
2024/04/12 11:03:56;;;;;;;13.60;5.93;;;22.50;69.30;;;;;;5426614;26;20321;-81
2024/04/12 11:06:30;;;;;;;16.15;7.07;;;23.00;68.40;;;;;;5429148;26;20055;-84
2024/04/12 11:08:58;;;;;;;12.60;5.90;;;23.00;68.20;;;;;;5431580;26;20514;-81
2024/04/12 11:11:31;;;;;;;12.77;6.40;;;22.70;68.20;;;;;;5426100;26;20006;-80
2024/04/12 11:13:59;;;;;;;13.32;6.45;;;22.60;67.40;;;;;;5401629;26;20340;-80
2024/04/12 11:33:04;;;;;;;;;;;21.60;70.10;;;;;;5424757;26;20052;-81
2024/04/12 11:35:31;;;;;;;9.95;4.72;;;22.20;68.50;;;;;;5416714;26;19940;-80
2024/04/12 11:37:57;;;;;;;8.70;4.25;;;22.50;68.50;;;;;;5415382;26;20007;-80
2024/04/12 11:40:25;;;;;;;9.95;5.07;;;22.40;67.10;;;;;;5424648;26;19995;-79
2024/04/12 11:42:56;;;;;;;10.57;4.85;;;22.50;67.00;;;;;;5431165;26;20079;-82
2024/04/12 11:45:25;;;;;;;12.20;4.57;;;22.50;67.60;;;;;;5392857;26;20310;-80
2024/04/12 11:47:51;;;;;;;10.80;4.55;;;22.60;67.50;;;;;;5441360;26;20013;-81
2024/04/12 11:50:17;;;;;;;11.88;5.07;;;23.10;66.30;;;;;;5431273;26;20002;-81
2024/04/12 11:52:43;;;;;;;12.82;5.55;;;23.10;65.80;;;;;;5432945;26;20444;-84
2024/04/12 11:55:12;;;;;;;11.02;5.10;;;23.30;65.70;;;;;;5404654;26;20592;-80
2024/04/12 11:57:40;;;;;;;9.05;4.20;;;23.20;66.50;;;;;;5430811;26;19995;-80
2024/04/12 12:00:09;;;;;;;11.68;5.00;;;23.60;65.20;;;;;;5428663;26;20067;-81
2024/04/12 12:02:36;;;;;;;10.77;5.20;;;23.70;65.20;;;;;;5432647;26;19999;-82
2024/04/12 12:05:04;;;;;;;10.57;5.20;;;23.70;63.80;;;;;;5437661;26;19998;-80
2024/04/12 12:07:30;;;;;;;12.07;4.97;;;23.80;63.80;;;;;;5439578;26;20002;-81
2024/04/12 12:09:56;;;;;;;12.35;5.00;;;23.90;63.80;;;;;;5430642;26;20076;-80
2024/04/12 12:12:22;;;;;;;9.40;4.75;;;23.80;63.80;;;;;;5419471;26;20001;-80
2024/04/12 12:14:51;;;;;;;11.70;4.25;;;23.70;65.10;;;;;;5432838;26;20041;-80
2024/04/12 12:17:18;;;;;;;11.07;3.75;;;24.10;62.40;;;;;;5431958;26;19995;-80
2024/04/12 12:19:46;;;;;;;8.80;3.95;;;24.40;61.70;;;;;;5429958;26;19990;-80
2024/04/12 12:22:12;;;;;;;10.35;3.88;;;24.50;60.90;;;;;;5428880;26;20011;-83
2024/04/12 12:24:39;;;;;;;9.20;3.30;;;24.50;60.60;;;;;;5435551;26;20087;-81
2024/04/12 12:27:08;;;;;;;14.32;3.58;;;24.50;60.60;;;;;;5409344;26;20009;-81
2024/04/12 12:29:38;;;;;;;9.13;3.50;;;24.60;59.60;;;;;;5432069;26;20415;-81
2024/04/12 12:32:05;;;;;;;9.85;3.35;;;24.70;57.80;;;;;;5432468;26;20003;-82
2024/04/12 12:34:33;;;;;;;9.15;3.33;;;24.20;60.20;;;;;;5387549;26;20010;-80
2024/04/12 12:37:04;;;;;;;6.68;2.72;;;24.00;61.30;;;;;;5404338;26;20023;-82
2024/04/12 12:39:33;;;;;;;8.23;3.40;;;24.30;60.80;;;;;;5435147;26;20077;-81
2024/04/12 12:42:02;;;;;;;12.20;3.67;;;23.70;61.50;;;;;;5433830;26;20045;-80
2024/04/12 12:44:30;;;;;;;9.75;3.42;;;24.00;61.70;;;;;;5427129;26;20555;-80
2024/04/12 12:47:02;;;;;;;7.82;2.95;;;23.90;60.30;;;;;;5418142;26;20014;-80
2024/04/12 12:49:33;;;;;;;6.78;2.70;;;23.70;62.30;;;;;;5410690;26;20724;-81
2024/04/12 12:51:59;;;;;;;7.03;3.00;;;23.60;61.00;;;;;;5432409;26;20064;-80
2024/04/12 12:54:26;;;;;;;10.35;2.92;;;23.90;60.90;;;;;;5430342;26;20011;-80
2024/04/12 12:56:53;;;;;;;7.10;3.08;;;23.50;61.00;;;;;;5395912;26;20009;-81
2024/04/12 12:59:19;;;;;;;8.45;2.85;;;23.60;61.50;;;;;;5436248;26;19998;-80
2024/04/12 13:01:46;;;;;;;6.28;2.85;;;23.80;60.50;;;;;;5410631;26;20014;-80
2024/04/12 13:04:12;;;;;;;8.95;3.05;;;24.00;61.50;;;;;;5431878;26;20556;-83
2024/04/12 13:06:38;;;;;;;8.27;3.00;;;23.80;62.40;;;;;;5432372;26;20000;-79
2024/04/12 13:09:05;;;;;;;9.27;3.50;;;23.90;61.90;;;;;;5426737;26;20457;-78
2024/04/12 13:11:31;;;;;;;7.95;2.95;;;23.60;61.90;;;;;;5411167;26;20343;-81
2024/04/12 13:14:01;;;;;;;9.35;3.20;;;23.80;62.10;;;;;;5438057;26;19999;-82
2024/04/12 13:16:27;;;;;;;9.70;3.60;;;23.70;61.10;;;;;;5416545;26;19999;-79
2024/04/12 13:18:53;;;;;;;10.15;3.17;;;23.20;61.30;;;;;;5421019;26;20550;-79
2024/04/12 13:21:25;;;;;;;8.65;3.10;;;23.20;64.00;;;;;;5437651;26;20093;-81
2024/04/12 13:23:51;;;;;;;10.73;3.33;;;23.50;62.20;;;;;;5428949;26;20006;-79
2024/04/12 13:26:22;;;;;;;9.45;3.10;;;23.50;62.60;;;;;;5434031;26;20016;-80
2024/04/12 13:28:53;;;;;;;8.52;3.33;;;23.70;63.60;;;;;;5433516;26;20472;-78
2024/04/12 13:31:29;;;;;;;8.15;3.00;;;24.00;63.50;;;;;;5410301;26;20353;-78
2024/04/12 13:33:55;;;;;;;9.50;3.05;;;23.80;60.60;;;;;;5423668;26;20068;-82
2024/04/12 13:36:22;;;;;;;7.18;2.40;;;23.40;62.50;;;;;;5406645;26;20020;-81
2024/04/12 13:38:49;;;;;;;8.27;2.50;;;23.60;63.00;;;;;;5433279;26;20021;-80
2024/04/12 13:41:20;;;;;;;6.32;2.45;;;23.90;62.30;;;;;;5432442;26;20003;-80
2024/04/12 13:43:50;;;;;;;6.88;2.83;;;24.10;62.40;;;;;;5408927;26;20803;-79
2024/04/12 13:51:51;;;;;;;6.80;2.53;;;23.50;61.30;;;;;;5425544;26;20014;-81
2024/04/12 13:54:21;;;;;;;7.95;2.40;;;23.60;61.30;;;;;;5425514;26;20011;-80
2024/04/12 13:56:56;;;;;;;7.38;2.38;;;23.50;60.90;;;;;;5401514;26;20348;-80
2024/04/12 13:59:22;;;;;;;9.40;2.83;;;23.10;62.20;;;;;;5409817;26;20277;-79
2024/04/12 14:01:49;;;;;;;7.13;2.67;;;23.20;61.50;;;;;;5429627;26;20004;-79
2024/04/12 14:04:18;;;;;;;5.63;2.42;;;23.10;62.70;;;;;;5440904;26;19995;-82